LPFR Información de aeropuertos

Información de pistas
Pista 10 Longitud 8169 ft Ancho 148 ft
Elevación 24 ft Umbral 148 ft Rumbo 100
Pista 28 Longitud 8169 ft Ancho 148 ft
Elevación 18 ft Umbral 148 ft Rumbo 280
Frecuencias
Tipo APP Nombre APP Frequencia 119.4 MHZ
Tipo ATIS Nombre ATIS Frequencia 124.2 MHZ
Tipo GND Nombre GND Frequencia 118.575 MHZ
Tipo TWR Nombre TWR Frequencia 118.2 MHZ
Radioayudas
Tipo NDB Nombre Faro Frequencia 332 KHZ
Tipo VOR-DME Nombre Faro Frequencia 112800 KHZ
Información meteorológica y NOTAM
ADDS - METARS form results

(1520 UTC 21 October 2021)
Data provider http://aviationweather.gov/metar/data/
 
METAR text: LPFR 211500Z 33011KT 300V020 9999 FEW030 26/11 Q1018
Conditions at: LPFR (FARO , PT) observed 1500 UTC 21 October 2021
Temperature: 26.0°C (79°F)
Dewpoint: 11.0°C (52°F) [RH = 39%]
Pressure (altimeter): 30.06 inches Hg (1018.0 mb)
Winds: from the NNW (330 degrees) at 13 MPH (11 knots; 5.7 m/s)
Visibility: 6 or more miles (10+ km)
Ceiling: at least 12,000 feet AGL
Clouds: few clouds at 3000 feet AGL
Weather: no significant weather observed at this time

METAR text: LPFR 211430Z 33008KT 280V010 9999 FEW030 26/12 Q1018
Conditions at: LPFR (FARO , PT) observed 1430 UTC 21 October 2021
Temperature: 26.0°C (79°F)
Dewpoint: 12.0°C (54°F) [RH = 42%]
Pressure (altimeter): 30.06 inches Hg (1018.0 mb)
Winds: from the NNW (330 degrees) at 9 MPH (8 knots; 4.1 m/s)
Visibility: 6 or more miles (10+ km)
Ceiling: at least 12,000 feet AGL
Clouds: few clouds at 3000 feet AGL
Weather: no significant weather observed at this time

Forecast for: LPFR (FARO , PT)
Text: TAF LPFR 211100Z 2112/2212 34010KT CAVOK
Forecast period: 1200 UTC 21 October 2021 to 1200 UTC 22 October 2021
Forecast type: FROM: standard forecast or significant change
Winds: from the NNW (340 degrees) at 12 MPH (10 knots; 5.1 m/s)
Visibility: 6 or more miles (10+ km)
Ceiling: unknown
Clouds: missing
Weather: NSW  (no significant weather)
Text: PROB30 2113/2117 25010KT
Forecast period: 1300 to 1700 UTC 21 October 2021
Forecast type: PROBABLE: 30 percent likelihood of the following during this time
Winds: from the WSW (250 degrees) at 12 MPH (10 knots; 5.1 m/s)
Visibility: missing
Ceiling: unknown
Clouds: missing
Weather: no significant weather forecast for this period